createdAt,value
2016-12-04T00:01:36.550Z,-0.18
2016-12-04T00:02:51.485Z,-0.16
2016-12-04T00:03:36.583Z,-0.15
2016-12-04T00:04:36.586Z,-0.07
2016-12-04T00:05:36.602Z,-0.1
2016-12-04T00:06:36.617Z,-0.18
2016-12-04T00:07:36.627Z,-0.16
2016-12-04T00:08:36.641Z,-0.16
2016-12-04T00:09:36.663Z,-0.14
2016-12-04T00:10:36.668Z,-0.11
2016-12-04T00:11:36.682Z,-0.16
2016-12-04T00:12:36.702Z,-0.1
2016-12-04T00:13:36.715Z,-0.14
2016-12-04T00:14:36.729Z,-0.08
2016-12-04T00:15:36.742Z,-0.18
2016-12-04T00:16:36.755Z,-0.16
2016-12-04T00:17:36.770Z,-0.11
2016-12-04T00:18:36.783Z,-0.18
2016-12-04T00:19:36.801Z,-0.21
2016-12-04T00:20:36.838Z,-0.21
2016-12-04T00:21:36.828Z,-0.23
2016-12-04T00:22:36.842Z,-0.21
2016-12-04T00:23:36.848Z,-0.14
2016-12-04T00:24:36.868Z,-0.15
2016-12-04T00:25:36.883Z,-0.16
2016-12-04T00:26:36.901Z,-0.1
2016-12-04T00:27:36.916Z,-0.23
2016-12-04T00:28:36.929Z,-0.26
2016-12-04T00:29:36.964Z,-0.22
2016-12-04T00:30:36.949Z,-0.18
2016-12-04T00:31:36.978Z,-0.23
2016-12-04T00:32:36.977Z,-0.29
2016-12-04T00:33:36.994Z,-0.22
2016-12-04T00:34:51.932Z,-0.14
2016-12-04T00:35:37.028Z,-0.16
2016-12-04T00:36:37.041Z,-0.22
2016-12-04T00:37:37.055Z,-0.19
2016-12-04T00:38:37.062Z,-0.22
2016-12-04T00:39:37.081Z,-0.14
2016-12-04T00:40:37.098Z,-0.21
2016-12-04T00:41:37.106Z,-0.28
2016-12-04T00:42:37.124Z,-0.26
2016-12-04T00:43:37.138Z,-0.25
2016-12-04T00:45:37.170Z,-0.21
2016-12-04T00:46:37.178Z,-0.19
2016-12-04T00:47:52.118Z,-0.15
2016-12-04T00:48:37.205Z,-0.16
2016-12-04T00:49:37.227Z,-0.1
2016-12-04T00:50:52.161Z,-0.18
2016-12-04T00:51:52.170Z,-0.11
2016-12-04T00:52:37.269Z,-0.15
2016-12-04T00:53:37.281Z,-0.11
2016-12-04T00:54:37.296Z,-0.1
2016-12-04T00:55:37.304Z,-0.14
2016-12-04T00:56:37.320Z,-0.15
2016-12-04T00:57:37.334Z,-0.21
2016-12-04T00:58:37.380Z,-0.14
2016-12-04T00:59:37.361Z,-0.14
2016-12-04T01:00:37.375Z,-0.23
2016-12-04T01:01:37.394Z,-0.23
2016-12-04T01:02:37.408Z,-0.11
2016-12-04T01:03:37.426Z,-0.16
2016-12-04T01:04:52.357Z,-0.08
2016-12-04T01:05:37.452Z,-0.15
2016-12-04T01:06:52.384Z,-0.05
2016-12-04T01:08:37.492Z,-0.16
2016-12-04T01:09:37.503Z,-0.08
2016-12-04T01:10:37.523Z,-0.07
2016-12-04T01:11:37.537Z,-0.16
2016-12-04T01:12:37.546Z,-0.11
2016-12-04T01:13:37.565Z,0
2016-12-04T01:14:37.579Z,-0.01
2016-12-04T01:15:37.589Z,-0.1
2016-12-04T01:16:37.909Z,-0.08
2016-12-04T01:17:37.616Z,-0.14
2016-12-04T01:18:37.633Z,-0.14
2016-12-04T01:19:37.646Z,-0.18
2016-12-04T01:20:37.658Z,-0.08
2016-12-04T01:22:52.612Z,-0.31
2016-12-04T01:23:37.710Z,-0.28
2016-12-04T01:24:52.637Z,-0.26
2016-12-04T01:25:37.731Z,-0.23
2016-12-04T01:26:38.041Z,-0.15
2016-12-04T01:27:37.756Z,-0.21
2016-12-04T01:29:37.808Z,-0.23
2016-12-04T01:30:37.801Z,-0.33
2016-12-04T01:32:52.758Z,-0.23
2016-12-04T01:33:37.847Z,-0.23
2016-12-04T01:34:37.859Z,-0.23
2016-12-04T01:35:37.920Z,-0.29
2016-12-04T01:36:52.809Z,-0.26
2016-12-04T01:37:52.822Z,-0.26
2016-12-04T01:38:37.914Z,-0.25
2016-12-04T01:39:37.986Z,-0.23
2016-12-04T01:40:37.973Z,-0.29
2016-12-04T01:41:37.960Z,-0.47
2016-12-04T01:42:37.990Z,-0.42
2016-12-04T01:43:37.984Z,-0.43
2016-12-04T01:44:38.002Z,-0.44
2016-12-04T01:45:38.010Z,-0.39
2016-12-04T01:46:38.028Z,-0.36
2016-12-04T01:47:38.044Z,-0.39
2016-12-04T01:48:38.057Z,-0.39
2016-12-04T01:49:38.073Z,-0.39
2016-12-04T01:51:38.096Z,-0.4
2016-12-04T01:52:53.036Z,-0.34
2016-12-04T01:53:53.049Z,-0.44
2016-12-04T01:54:38.143Z,-0.36
2016-12-04T01:55:38.157Z,-0.4
2016-12-04T01:56:38.171Z,-0.31
2016-12-04T01:57:38.184Z,-0.44
2016-12-04T01:58:38.204Z,-0.43
2016-12-04T01:59:38.212Z,-0.52
2016-12-04T02:00:38.224Z,-0.49
2016-12-04T02:01:38.240Z,-0.39
2016-12-04T02:02:38.254Z,-0.44
2016-12-04T02:03:38.273Z,-0.49
2016-12-04T02:04:38.280Z,-0.29
2016-12-04T02:05:38.296Z,-0.39
2016-12-04T02:06:38.354Z,-0.33
2016-12-04T02:07:53.248Z,-0.4
2016-12-04T02:08:38.341Z,-0.37
2016-12-04T02:09:53.270Z,-0.39
2016-12-04T02:10:53.285Z,-0.4
2016-12-04T02:11:38.385Z,-0.33
2016-12-04T02:12:38.398Z,-0.46
2016-12-04T02:13:38.412Z,-0.46
2016-12-04T02:14:38.423Z,-0.46
2016-12-04T02:15:38.444Z,-0.54
2016-12-04T02:16:38.451Z,-0.51
2016-12-04T02:17:38.474Z,-0.61
2016-12-04T02:18:38.528Z,-0.65
2016-12-04T02:19:53.421Z,-0.62
2016-12-04T02:20:38.504Z,-0.61
2016-12-04T02:21:38.526Z,-0.65
2016-12-04T02:22:38.535Z,-0.75
2016-12-04T02:23:38.553Z,-0.67
2016-12-04T02:24:38.564Z,-0.58
2016-12-04T02:25:53.498Z,-0.67
2016-12-04T02:26:38.623Z,-0.65
2016-12-04T02:27:38.608Z,-0.64
2016-12-04T02:28:38.623Z,-0.57
2016-12-04T02:29:38.633Z,-0.52
2016-12-04T02:30:38.643Z,-0.49
2016-12-04T02:31:38.661Z,-0.51
2016-12-04T02:32:53.623Z,-0.52
2016-12-04T02:33:38.696Z,-0.46
2016-12-04T02:34:38.705Z,-0.58
2016-12-04T02:35:38.718Z,-0.55
2016-12-04T02:36:38.732Z,-0.55
2016-12-04T02:37:38.742Z,-0.62
2016-12-04T02:38:38.757Z,-0.55
2016-12-04T02:39:38.796Z,-0.52
2016-12-04T02:40:38.790Z,-0.64
2016-12-04T02:41:53.718Z,-0.54
2016-12-04T02:42:38.864Z,-0.51
2016-12-04T02:43:38.831Z,-0.51
2016-12-04T02:44:38.849Z,-0.46
2016-12-04T02:46:38.870Z,-0.52
2016-12-04T02:47:38.882Z,-0.49
2016-12-04T02:48:38.895Z,-0.52
2016-12-04T02:49:38.910Z,-0.55
2016-12-04T02:50:38.930Z,-0.46
2016-12-04T02:51:38.938Z,-0.51
2016-12-04T02:52:39.003Z,-0.51
2016-12-04T02:53:38.968Z,-0.54
2016-12-04T02:54:39.012Z,-0.42
2016-12-04T02:55:38.994Z,-0.55
2016-12-04T02:56:39.011Z,-0.52
2016-12-04T02:57:53.942Z,-0.52
2016-12-04T02:58:39.034Z,-0.52
2016-12-04T02:59:39.053Z,-0.51
2016-12-04T03:00:39.071Z,-0.46
2016-12-04T03:01:39.092Z,-0.46
2016-12-04T03:02:39.096Z,-0.57
2016-12-04T03:03:39.103Z,-0.54
2016-12-04T03:04:39.126Z,-0.52
2016-12-04T03:05:39.138Z,-0.58
2016-12-04T03:06:39.147Z,-0.54
2016-12-04T03:07:39.163Z,-0.54
2016-12-04T03:08:39.185Z,-0.51
2016-12-04T03:09:39.190Z,-0.57
2016-12-04T03:10:39.203Z,-0.51
2016-12-04T03:11:39.228Z,-0.49
2016-12-04T03:12:54.153Z,-0.6
2016-12-04T03:13:39.247Z,-0.62
2016-12-04T03:14:39.263Z,-0.57
2016-12-04T03:15:39.274Z,-0.6
2016-12-04T03:16:39.305Z,-0.61
2016-12-04T03:17:39.307Z,-0.55
2016-12-04T03:18:39.367Z,-0.58
2016-12-04T03:19:39.331Z,-0.52
2016-12-04T03:20:39.341Z,-0.55
2016-12-04T03:21:39.350Z,-0.61
2016-12-04T03:22:39.368Z,-0.67
2016-12-04T03:23:39.381Z,-0.58
2016-12-04T03:24:39.403Z,-0.64
2016-12-04T03:25:54.336Z,-0.57
2016-12-04T03:26:39.430Z,-0.49
2016-12-04T03:27:39.437Z,-0.57
2016-12-04T03:28:39.460Z,-0.57
2016-12-04T03:29:39.471Z,-0.52
2016-12-04T03:30:39.481Z,-0.54
2016-12-04T03:31:39.503Z,-0.58
2016-12-04T03:32:39.514Z,-0.57
2016-12-04T03:33:39.526Z,-0.54
2016-12-04T03:34:39.542Z,-0.47
2016-12-04T03:35:39.552Z,-0.54
2016-12-04T03:36:39.562Z,-0.52
2016-12-04T03:37:39.579Z,-0.49
2016-12-04T03:38:39.598Z,-0.51
2016-12-04T03:39:39.610Z,-0.43
2016-12-04T03:40:39.619Z,-0.54
2016-12-04T03:41:39.657Z,-0.54
2016-12-04T03:42:54.571Z,-0.65
2016-12-04T03:43:54.586Z,-0.61
2016-12-04T03:44:54.620Z,-0.54
2016-12-04T03:45:39.694Z,-0.58
2016-12-04T03:46:39.704Z,-0.54
2016-12-04T03:47:39.715Z,-0.51
2016-12-04T03:48:39.736Z,-0.58
2016-12-04T03:49:39.743Z,-0.51
2016-12-04T03:50:39.781Z,-0.55
2016-12-04T03:51:39.779Z,-0.61
2016-12-04T03:52:39.785Z,-0.58
2016-12-04T03:53:39.802Z,-0.62
2016-12-04T03:54:39.811Z,-0.62
2016-12-04T03:55:39.831Z,-0.7
2016-12-04T03:57:54.782Z,-0.61
2016-12-04T03:58:39.871Z,-0.51
2016-12-04T03:59:39.878Z,-0.46
2016-12-04T04:00:54.825Z,-0.46
2016-12-04T04:01:39.910Z,-0.4
2016-12-04T04:02:39.925Z,-0.4
2016-12-04T04:03:39.942Z,-0.42
2016-12-04T04:04:39.955Z,-0.42
2016-12-04T04:05:39.971Z,-0.33
2016-12-04T04:06:39.980Z,-0.37
2016-12-04T04:07:39.993Z,-0.34
2016-12-04T04:08:40.016Z,-0.23
2016-12-04T04:09:40.027Z,-0.34
2016-12-04T04:10:40.039Z,-0.36
2016-12-04T04:11:40.056Z,-0.33
2016-12-04T04:12:40.066Z,-0.39
2016-12-04T04:14:40.096Z,-0.29
2016-12-04T04:15:40.108Z,-0.29
2016-12-04T04:16:55.042Z,-0.19
2016-12-04T04:17:40.133Z,-0.23
2016-12-04T04:18:40.151Z,-0.25
2016-12-04T04:19:40.161Z,-0.19
2016-12-04T04:20:40.179Z,-0.21
2016-12-04T04:21:40.191Z,-0.31
2016-12-04T04:22:40.211Z,-0.14
2016-12-04T04:23:40.221Z,-0.26
2016-12-04T04:24:40.236Z,-0.26
2016-12-04T04:25:40.251Z,-0.26
2016-12-04T04:26:40.263Z,-0.21
2016-12-04T04:28:40.291Z,-0.23
2016-12-04T04:29:40.299Z,-0.19
2016-12-04T04:30:40.315Z,-0.29
2016-12-04T04:31:40.335Z,-0.28
2016-12-04T04:32:55.264Z,-0.28
2016-12-04T04:33:40.360Z,-0.26
2016-12-04T04:35:40.383Z,-0.16
2016-12-04T04:36:40.403Z,-0.19
2016-12-04T04:38:40.427Z,-0.21
2016-12-04T04:39:40.442Z,-0.25
2016-12-04T04:40:40.459Z,-0.14
2016-12-04T04:41:40.468Z,-0.16
2016-12-04T04:42:40.486Z,-0.21
2016-12-04T04:43:40.503Z,-0.26
2016-12-04T04:44:40.506Z,-0.14
2016-12-04T04:45:55.451Z,-0.21
2016-12-04T04:46:40.546Z,-0.23
2016-12-04T04:47:55.480Z,-0.33
2016-12-04T04:48:40.568Z,-0.36
2016-12-04T04:49:55.501Z,-0.37
2016-12-04T04:50:40.611Z,-0.44
2016-12-04T04:51:40.609Z,-0.44
2016-12-04T04:52:40.627Z,-0.52
2016-12-04T04:53:40.637Z,-0.51
2016-12-04T04:54:40.651Z,-0.55
2016-12-04T04:55:40.666Z,-0.57
2016-12-04T04:56:40.684Z,-0.62
2016-12-04T04:57:40.745Z,-0.61
2016-12-04T04:58:40.710Z,-0.65
2016-12-04T04:59:40.724Z,-0.82
2016-12-04T05:01:55.676Z,-0.78
2016-12-04T05:02:40.765Z,-0.83
2016-12-04T05:03:40.780Z,-0.82
2016-12-04T05:04:40.793Z,-0.7
2016-12-04T05:05:40.812Z,-0.75
2016-12-04T05:06:40.849Z,-0.73
2016-12-04T05:07:40.838Z,-0.82
2016-12-04T05:08:40.846Z,-0.86
2016-12-04T05:09:40.865Z,-0.78
2016-12-04T05:10:40.883Z,-0.75
2016-12-04T05:11:40.890Z,-0.91
2016-12-04T05:12:40.932Z,-0.95
2016-12-04T05:13:40.916Z,-0.98
2016-12-04T05:14:40.936Z,-0.98
2016-12-04T05:16:40.960Z,-1.15
2016-12-04T05:17:40.978Z,-1.13
2016-12-04T05:18:40.991Z,-1.16
2016-12-04T05:19:55.922Z,-1.17
2016-12-04T05:20:55.934Z,-1.23
2016-12-04T05:21:41.055Z,-1.28
2016-12-04T05:22:41.044Z,-1.28
2016-12-04T05:23:41.059Z,-1.3
2016-12-04T05:24:41.071Z,-1.35
2016-12-04T05:25:41.088Z,-1.28
2016-12-04T05:26:41.103Z,-1.35
2016-12-04T05:27:41.111Z,-1.34
2016-12-04T05:28:41.128Z,-1.41
2016-12-04T05:29:41.142Z,-1.33
2016-12-04T05:30:41.157Z,-1.23
2016-12-04T05:31:41.165Z,-1.31
2016-12-04T05:33:41.192Z,-1.35
2016-12-04T05:35:56.142Z,-1.37
2016-12-04T05:36:41.241Z,-1.33
2016-12-04T05:37:41.242Z,-1.16
2016-12-04T05:38:41.268Z,-1.3
2016-12-04T05:39:41.274Z,-1.3
2016-12-04T05:40:41.295Z,-1.41
2016-12-04T05:41:41.303Z,-1.37
2016-12-04T05:42:41.314Z,-1.38
2016-12-04T05:43:41.414Z,-1.3
2016-12-04T05:44:41.349Z,-1.25
2016-12-04T05:45:41.365Z,-1.22
2016-12-04T05:46:41.375Z,-1.28
2016-12-04T05:47:41.384Z,-1.41
2016-12-04T05:48:41.399Z,-1.35
2016-12-04T05:49:56.336Z,-1.35
2016-12-04T05:50:41.428Z,-1.34
2016-12-04T05:51:56.358Z,-1.4
2016-12-04T05:52:41.499Z,-1.46
2016-12-04T05:53:41.471Z,-1.43
2016-12-04T05:54:41.484Z,-1.3
2016-12-04T05:56:41.537Z,-1.35
2016-12-04T05:57:41.521Z,-1.3
2016-12-04T05:58:41.557Z,-1.17
2016-12-04T05:59:41.552Z,-1.27
2016-12-04T06:00:41.564Z,-1.16
2016-12-04T06:01:41.575Z,-1.15
2016-12-04T06:02:41.581Z,-1.07
2016-12-04T06:03:41.605Z,-1.09
2016-12-04T06:04:41.611Z,-1.01
2016-12-04T06:05:41.634Z,-1.01
2016-12-04T06:07:56.581Z,-0.99
2016-12-04T06:08:56.587Z,-0.97
2016-12-04T06:09:41.685Z,-0.99
2016-12-04T06:10:41.696Z,-0.99
2016-12-04T06:11:41.712Z,-0.97
2016-12-04T06:12:41.721Z,-0.86
2016-12-04T06:13:41.737Z,-0.95
2016-12-04T06:14:41.749Z,-0.83
2016-12-04T06:15:41.767Z,-0.89
2016-12-04T06:16:41.775Z,-0.79
2016-12-04T06:17:41.788Z,-0.86
2016-12-04T06:18:41.807Z,-0.79
2016-12-04T06:19:41.820Z,-0.75
2016-12-04T06:20:42.143Z,-0.69
2016-12-04T06:21:41.847Z,-0.64
2016-12-04T06:22:56.781Z,-0.72
2016-12-04T06:23:41.874Z,-0.7
2016-12-04T06:24:56.809Z,-0.72
2016-12-04T06:25:56.821Z,-0.72
2016-12-04T06:26:41.920Z,-0.65
2016-12-04T06:27:41.934Z,-0.67
2016-12-04T06:28:41.944Z,-0.57
2016-12-04T06:29:41.953Z,-0.62
2016-12-04T06:30:42.019Z,-0.54
2016-12-04T06:31:41.987Z,-0.46
2016-12-04T06:32:42.000Z,-0.42
2016-12-04T06:33:42.020Z,-0.43
2016-12-04T06:34:42.025Z,-0.4
2016-12-04T06:35:42.070Z,-0.39
2016-12-04T06:36:56.979Z,-0.36
2016-12-04T06:37:42.067Z,-0.36
2016-12-04T06:39:42.099Z,-0.39
2016-12-04T06:40:42.107Z,-0.43
2016-12-04T06:41:42.177Z,-0.43
2016-12-04T06:42:42.183Z,-0.42
2016-12-04T06:43:42.207Z,-0.37
2016-12-04T06:44:42.170Z,-0.36
2016-12-04T06:45:42.184Z,-0.33
2016-12-04T06:46:42.195Z,-0.39
2016-12-04T06:47:42.207Z,-0.36
2016-12-04T06:49:42.237Z,-0.21
2016-12-04T06:50:42.251Z,-0.21
2016-12-04T06:51:42.262Z,-0.28
2016-12-04T06:52:57.202Z,-0.29
2016-12-04T06:53:42.296Z,-0.15
2016-12-04T06:54:57.229Z,-0.21
2016-12-04T06:55:42.325Z,-0.05
2016-12-04T06:56:42.331Z,-0.08
2016-12-04T06:57:42.348Z,-0.11
2016-12-04T06:58:42.360Z,0
2016-12-04T06:59:42.376Z,0.02
2016-12-04T07:00:42.394Z,0.02
2016-12-04T07:01:42.407Z,0.08
2016-12-04T07:02:42.414Z,0.07
2016-12-04T07:03:42.430Z,-0.04
2016-12-04T07:04:42.443Z,0
2016-12-04T07:05:42.463Z,-0.04
2016-12-04T07:06:42.474Z,0.03
2016-12-04T07:07:42.505Z,0.07
2016-12-04T07:08:42.500Z,0.2
2016-12-04T07:09:42.518Z,0.21
2016-12-04T07:10:57.450Z,0.18
2016-12-04T07:11:42.549Z,0.14
2016-12-04T07:12:42.561Z,0.14
2016-12-04T07:13:42.573Z,0.21
2016-12-04T07:14:42.585Z,0.13
2016-12-04T07:15:42.603Z,0.21
2016-12-04T07:16:42.916Z,0.21
2016-12-04T07:17:42.631Z,0.31
2016-12-04T07:18:42.645Z,0.21
2016-12-04T07:19:42.657Z,0.28
2016-12-04T07:20:42.668Z,0.36
2016-12-04T07:21:42.683Z,0.32
2016-12-04T07:22:42.700Z,0.29
2016-12-04T07:23:42.710Z,0.28
2016-12-04T07:24:42.728Z,0.33
2016-12-04T07:26:57.678Z,0.38
2016-12-04T07:27:42.770Z,0.31
2016-12-04T07:28:42.780Z,0.36
2016-12-04T07:29:42.797Z,0.32
2016-12-04T07:31:42.821Z,0.38
2016-12-04T07:32:42.843Z,0.39
2016-12-04T07:33:42.856Z,0.49
2016-12-04T07:34:42.866Z,0.46
2016-12-04T07:35:42.878Z,0.47
2016-12-04T07:36:42.902Z,0.47
2016-12-04T07:37:42.911Z,0.46
2016-12-04T07:38:42.926Z,0.58
2016-12-04T07:39:42.998Z,0.57
2016-12-04T07:40:42.950Z,0.61
2016-12-04T07:41:42.973Z,0.6
2016-12-04T07:42:57.902Z,0.49
2016-12-04T07:43:57.916Z,0.6
2016-12-04T07:44:43.014Z,0.55
2016-12-04T07:45:43.043Z,0.62
2016-12-04T07:46:43.039Z,0.6
2016-12-04T07:47:43.054Z,0.68
2016-12-04T07:48:43.073Z,0.69
2016-12-04T07:49:43.082Z,0.75
2016-12-04T07:50:43.100Z,0.78
2016-12-04T07:51:43.109Z,0.75
2016-12-04T07:52:43.128Z,0.88
2016-12-04T07:53:43.140Z,0.84
2016-12-04T07:54:43.454Z,0.75
2016-12-04T07:55:43.167Z,0.7
2016-12-04T07:56:43.189Z,0.69
2016-12-04T07:57:58.121Z,0.76
2016-12-04T07:58:43.207Z,0.73
2016-12-04T07:59:58.147Z,0.76
2016-12-04T08:00:43.248Z,0.73
2016-12-04T08:01:43.258Z,0.78
2016-12-04T08:02:43.273Z,0.78
2016-12-04T08:03:43.289Z,0.73
2016-12-04T08:04:43.304Z,0.76
2016-12-04T08:05:43.311Z,0.76
2016-12-04T08:06:43.325Z,0.76
2016-12-04T08:07:43.343Z,0.75
2016-12-04T08:09:43.375Z,0.87
2016-12-04T08:11:58.328Z,0.88
2016-12-04T08:12:43.415Z,0.88
2016-12-04T08:13:43.439Z,0.86
2016-12-04T08:14:43.448Z,0.91
2016-12-04T08:15:43.469Z,0.84
2016-12-04T08:16:43.476Z,0.86
2016-12-04T08:17:43.489Z,0.88
2016-12-04T08:18:43.506Z,0.93
2016-12-04T08:19:43.519Z,0.86
2016-12-04T08:20:43.535Z,0.9
2016-12-04T08:21:43.545Z,0.8
2016-12-04T08:22:43.564Z,0.83
2016-12-04T08:23:43.584Z,0.9
2016-12-04T08:24:43.594Z,0.98
2016-12-04T08:25:43.611Z,0.86
2016-12-04T08:26:43.624Z,0.84
2016-12-04T08:27:43.640Z,0.94
2016-12-04T08:28:43.682Z,0.83
2016-12-04T08:29:58.639Z,1
2016-12-04T08:30:43.684Z,1.08
2016-12-04T08:31:43.703Z,1.11
2016-12-04T08:32:43.717Z,1.11
2016-12-04T08:33:43.730Z,1.06
2016-12-04T08:34:43.748Z,0.98
2016-12-04T08:35:43.759Z,1.04
2016-12-04T08:36:43.777Z,1.04
2016-12-04T08:37:43.787Z,0.97
2016-12-04T08:38:43.813Z,0.94
2016-12-04T08:39:43.821Z,0.98
2016-12-04T08:40:43.863Z,1.09
2016-12-04T08:41:43.844Z,1
2016-12-04T08:42:43.909Z,1.04
2016-12-04T08:43:58.804Z,1.2
2016-12-04T08:44:43.888Z,1.23
2016-12-04T08:45:58.830Z,1.15
2016-12-04T08:46:43.933Z,1.06
2016-12-04T08:47:43.941Z,1.11
2016-12-04T08:48:43.960Z,1.15
2016-12-04T08:49:43.970Z,1.2
2016-12-04T08:50:44.003Z,1.18
2016-12-04T08:51:44.312Z,1.11
2016-12-04T08:52:44.016Z,1.32
2016-12-04T08:53:44.032Z,1.32
2016-12-04T08:54:44.044Z,1.32
2016-12-04T08:55:44.061Z,1.36
2016-12-04T08:56:59.001Z,1.36
2016-12-04T08:57:44.094Z,1.36
2016-12-04T08:58:44.109Z,1.48
2016-12-04T08:59:59.044Z,1.34
2016-12-04T09:00:44.136Z,1.36
2016-12-04T09:01:59.076Z,1.3
2016-12-04T09:02:44.168Z,1.45
2016-12-04T09:03:44.186Z,1.5
2016-12-04T09:04:44.204Z,1.5
2016-12-04T09:05:44.268Z,1.47
2016-12-04T09:06:44.231Z,1.54
2016-12-04T09:07:44.255Z,1.66
2016-12-04T09:08:44.267Z,1.68
2016-12-04T09:09:44.279Z,1.63
2016-12-04T09:10:44.292Z,1.79
2016-12-04T09:11:44.311Z,1.73
2016-12-04T09:12:44.318Z,1.84
2016-12-04T09:13:44.336Z,1.88
2016-12-04T09:14:44.346Z,2
2016-12-04T09:15:44.368Z,1.93
2016-12-04T09:16:44.381Z,2.1
2016-12-04T09:17:59.317Z,2.02
2016-12-04T09:18:44.716Z,2.05
2016-12-04T09:19:44.429Z,2.07
2016-12-04T09:20:44.446Z,2.1
2016-12-04T09:21:44.459Z,2.28
2016-12-04T09:22:44.478Z,2.34
2016-12-04T09:23:44.497Z,2.25
2016-12-04T09:24:44.513Z,2.24
2016-12-04T09:25:44.527Z,2.2
2016-12-04T09:26:44.541Z,2.2
2016-12-04T09:28:44.576Z,2.1
2016-12-04T09:29:44.588Z,2.1
2016-12-04T09:30:44.636Z,2.16
2016-12-04T09:31:44.616Z,2.1
2016-12-04T09:32:59.557Z,2.07
2016-12-04T09:33:44.656Z,2.12
2016-12-04T09:34:44.670Z,2.14
2016-12-04T09:35:59.602Z,2.2
2016-12-04T09:36:44.697Z,2.1
2016-12-04T09:37:44.711Z,2.21
2016-12-04T09:38:44.729Z,2.16
2016-12-04T09:39:44.751Z,2.1
2016-12-04T09:40:44.772Z,2.2
2016-12-04T09:41:44.774Z,2.2
2016-12-04T09:43:44.811Z,2.18
2016-12-04T09:44:44.833Z,2.28
2016-12-04T09:45:44.839Z,2.28
2016-12-04T09:46:44.853Z,2.31
2016-12-04T09:47:44.901Z,2.35
2016-12-04T09:48:44.889Z,2.36
2016-12-04T09:49:44.901Z,2.27
2016-12-04T09:50:44.921Z,2.41
2016-12-04T09:51:44.932Z,2.34
2016-12-04T09:52:44.953Z,2.34
2016-12-04T09:53:44.971Z,2.31
2016-12-04T09:54:44.984Z,2.35
2016-12-04T09:55:45.004Z,2.31
2016-12-04T09:56:45.038Z,2.28
2016-12-04T09:57:45.044Z,2.21
2016-12-04T09:58:45.047Z,2.25
2016-12-04T09:59:59.993Z,2.21
2016-12-04T10:00:45.084Z,2.18
2016-12-04T10:01:45.096Z,2.12
2016-12-04T10:02:45.113Z,2.09
2016-12-04T10:03:45.129Z,2.07
2016-12-04T10:05:00.064Z,2.16
2016-12-04T10:06:00.082Z,2.12
2016-12-04T10:06:45.175Z,2.25
2016-12-04T10:07:45.217Z,2.27
2016-12-04T10:08:45.207Z,2.23
2016-12-04T10:09:45.230Z,2.35
2016-12-04T10:10:45.239Z,2.17
2016-12-04T10:11:45.254Z,2.3
2016-12-04T10:12:45.278Z,2.3
2016-12-04T10:13:45.287Z,2.25
2016-12-04T10:14:45.304Z,2.23
2016-12-04T10:15:45.326Z,2.31
2016-12-04T10:16:45.337Z,2.35
2016-12-04T10:17:45.352Z,2.31
2016-12-04T10:18:45.369Z,2.39
2016-12-04T10:19:45.387Z,2.36
2016-12-04T10:21:00.323Z,2.46
2016-12-04T10:21:45.418Z,2.49
2016-12-04T10:23:00.352Z,2.6
2016-12-04T10:23:45.447Z,2.64
2016-12-04T10:24:45.462Z,2.71
2016-12-04T10:25:45.485Z,2.64
2016-12-04T10:26:45.495Z,2.57
2016-12-04T10:27:45.514Z,2.6
2016-12-04T10:28:45.535Z,2.52
2016-12-04T10:29:45.580Z,2.54
2016-12-04T10:30:45.560Z,2.45
2016-12-04T10:31:45.575Z,2.49
2016-12-04T10:32:45.589Z,2.54
2016-12-04T10:33:45.606Z,2.46
2016-12-04T10:34:45.934Z,2.46
2016-12-04T10:35:45.643Z,2.43
2016-12-04T10:37:00.577Z,2.49
2016-12-04T10:37:45.678Z,2.45
2016-12-04T10:38:45.692Z,2.49
2016-12-04T10:39:45.708Z,2.43
2016-12-04T10:40:45.727Z,2.42
2016-12-04T10:41:45.739Z,2.48
2016-12-04T10:42:45.756Z,2.46
2016-12-04T10:43:45.774Z,2.46
2016-12-04T10:44:45.784Z,2.31
2016-12-04T10:45:45.810Z,2.36
2016-12-04T10:46:45.818Z,2.42
2016-12-04T10:47:45.837Z,2.34
2016-12-04T10:48:45.854Z,2.36
2016-12-04T10:50:00.793Z,2.42
2016-12-04T10:50:45.882Z,2.49
2016-12-04T10:51:45.905Z,2.48
2016-12-04T10:53:00.837Z,2.52
2016-12-04T10:53:45.935Z,2.57
2016-12-04T10:54:45.953Z,2.43
2016-12-04T10:55:45.971Z,2.56
2016-12-04T10:56:45.984Z,2.56
2016-12-04T10:57:45.997Z,2.63
2016-12-04T10:58:46.058Z,2.63
2016-12-04T10:59:46.033Z,2.59
2016-12-04T11:00:46.039Z,2.66
2016-12-04T11:01:46.370Z,2.56
2016-12-04T11:02:46.377Z,2.56
2016-12-04T11:03:46.394Z,2.74
2016-12-04T11:04:46.114Z,2.79
2016-12-04T11:05:46.126Z,2.75
2016-12-04T11:06:46.142Z,2.75
2016-12-04T11:08:01.088Z,2.75
2016-12-04T11:08:46.178Z,2.75
2016-12-04T11:09:46.188Z,2.72
2016-12-04T11:10:46.537Z,2.66
2016-12-04T11:11:46.233Z,2.79
2016-12-04T11:12:46.240Z,2.78
2016-12-04T11:13:46.255Z,2.77
2016-12-04T11:14:46.275Z,2.85
2016-12-04T11:15:46.297Z,2.77
2016-12-04T11:16:46.310Z,2.75
2016-12-04T11:17:46.327Z,2.79
2016-12-04T11:18:46.345Z,2.77
2016-12-04T11:19:46.357Z,2.81
2016-12-04T11:20:46.400Z,2.95
2016-12-04T11:21:46.385Z,2.95
2016-12-04T11:22:46.446Z,3.02
2016-12-04T11:23:46.421Z,3
2016-12-04T11:25:01.358Z,3.17
2016-12-04T11:25:46.454Z,3.17
2016-12-04T11:26:46.469Z,3.18
2016-12-04T11:27:46.486Z,3.1
2016-12-04T11:28:46.559Z,3.15
2016-12-04T11:29:46.555Z,3.13
2016-12-04T11:30:46.538Z,3.03
2016-12-04T11:31:46.548Z,3.08
2016-12-04T11:32:46.572Z,2.99
2016-12-04T11:33:46.583Z,3.11
2016-12-04T11:34:46.605Z,3.1
2016-12-04T11:36:46.638Z,3.18
2016-12-04T11:37:46.647Z,3.2
2016-12-04T11:38:46.670Z,3.14
2016-12-04T11:40:01.610Z,3.14
2016-12-04T11:40:46.706Z,3.13
2016-12-04T11:41:46.719Z,3.18
2016-12-04T11:42:46.732Z,3.21
2016-12-04T11:43:46.752Z,3.2
2016-12-04T11:45:01.693Z,3.17
2016-12-04T11:45:46.791Z,3.14
2016-12-04T11:46:46.799Z,3.18
2016-12-04T11:47:47.121Z,3.17
2016-12-04T11:48:46.837Z,3.24
2016-12-04T11:49:46.855Z,3.17
2016-12-04T11:50:46.865Z,3.43
2016-12-04T11:51:46.886Z,3.39
2016-12-04T11:52:46.901Z,3.33
2016-12-04T11:53:46.922Z,3.43
2016-12-04T11:54:46.984Z,3.42
2016-12-04T11:56:01.876Z,3.26
2016-12-04T11:56:46.969Z,3.17
2016-12-04T11:57:46.986Z,3.15
2016-12-04T11:58:47.003Z,3.2
2016-12-04T11:59:47.016Z,3.14
2016-12-04T12:00:47.038Z,3.14
2016-12-04T12:01:47.053Z,3.15
2016-12-04T12:02:47.071Z,3.31
2016-12-04T12:03:47.386Z,3.23
2016-12-04T12:04:47.159Z,3.11
2016-12-04T12:05:47.117Z,3.15
2016-12-04T12:07:02.063Z,3.2
2016-12-04T12:07:47.160Z,3.2
2016-12-04T12:08:47.169Z,3.24
2016-12-04T12:10:02.109Z,3.21
2016-12-04T12:10:47.203Z,3.24
2016-12-04T12:12:02.139Z,3.32
2016-12-04T12:13:02.156Z,3.35
2016-12-04T12:13:47.262Z,3.42
2016-12-04T12:14:47.271Z,3.57
2016-12-04T12:15:47.283Z,3.45
2016-12-04T12:16:47.306Z,3.45
2016-12-04T12:17:47.324Z,3.47
2016-12-04T12:18:47.334Z,3.28
2016-12-04T12:19:47.354Z,3.24
2016-12-04T12:20:47.373Z,3.2
2016-12-04T12:21:47.387Z,3.14
2016-12-04T12:22:47.402Z,3.17
2016-12-04T12:25:02.360Z,3.17
2016-12-04T12:25:47.462Z,3.13
2016-12-04T12:26:47.468Z,3.14
2016-12-04T12:28:02.407Z,3.15
2016-12-04T12:29:47.516Z,3.2
2016-12-04T12:30:47.520Z,3.17
2016-12-04T12:31:47.571Z,3.2
2016-12-04T12:32:47.610Z,3.17
2016-12-04T12:33:47.583Z,3.2
2016-12-04T12:34:47.600Z,3.05
2016-12-04T12:35:47.624Z,3.14
2016-12-04T12:36:47.644Z,3.14
2016-12-04T12:37:47.652Z,3.02
2016-12-04T12:38:47.669Z,3.05
2016-12-04T12:39:47.681Z,3.02
2016-12-04T12:40:47.705Z,2.99
2016-12-04T12:41:47.721Z,2.97
2016-12-04T12:43:02.663Z,3.05
2016-12-04T12:43:47.753Z,3.08
2016-12-04T12:44:47.770Z,2.92
2016-12-04T12:45:47.788Z,2.92
2016-12-04T12:46:47.806Z,2.84
2016-12-04T12:47:47.818Z,2.9
2016-12-04T12:48:47.836Z,2.9
2016-12-04T12:49:47.858Z,2.9
2016-12-04T12:50:47.876Z,2.87
2016-12-04T12:51:47.889Z,2.97
2016-12-04T12:52:47.902Z,2.96
2016-12-04T12:53:47.922Z,2.96
2016-12-04T12:54:47.935Z,2.84
2016-12-04T12:56:02.878Z,2.92
2016-12-04T12:57:47.992Z,3.03
2016-12-04T12:59:02.924Z,2.93
2016-12-04T12:59:48.036Z,2.99
2016-12-04T13:00:48.087Z,3.06
2016-12-04T13:01:48.054Z,2.95
2016-12-04T13:02:48.061Z,2.93
2016-12-04T13:03:48.091Z,3.05
2016-12-04T13:04:48.106Z,2.99
2016-12-04T13:05:48.117Z,2.96
2016-12-04T13:06:48.139Z,2.96
2016-12-04T13:07:48.149Z,2.93
2016-12-04T13:08:48.167Z,2.97
2016-12-04T13:09:48.189Z,2.89
2016-12-04T13:10:48.500Z,2.89
2016-12-04T13:11:48.212Z,2.93
2016-12-04T13:13:03.156Z,3.05
2016-12-04T13:13:48.242Z,3.03
2016-12-04T13:15:03.190Z,3
2016-12-04T13:15:48.280Z,3.03
2016-12-04T13:16:48.298Z,3.05
2016-12-04T13:17:48.314Z,3.02
2016-12-04T13:18:48.328Z,3.08
2016-12-04T13:19:48.345Z,2.97
2016-12-04T13:20:48.368Z,2.93
2016-12-04T13:21:48.375Z,2.93
2016-12-04T13:22:48.391Z,2.79
2016-12-04T13:23:48.408Z,2.93
2016-12-04T13:24:48.422Z,2.84
2016-12-04T13:26:48.459Z,2.72
2016-12-04T13:27:48.473Z,2.72
2016-12-04T13:28:48.523Z,2.75
2016-12-04T13:30:03.430Z,2.81
2016-12-04T13:31:03.449Z,2.74
2016-12-04T13:31:48.572Z,2.77
2016-12-04T13:32:48.562Z,2.78
2016-12-04T13:33:48.572Z,2.79
2016-12-04T13:34:48.604Z,2.79
2016-12-04T13:35:48.605Z,2.87
2016-12-04T13:36:48.932Z,2.82
2016-12-04T13:37:48.640Z,2.78
2016-12-04T13:38:48.661Z,2.81
2016-12-04T13:39:48.669Z,2.77
2016-12-04T13:40:48.689Z,2.77